Carlsbad, NM

6:59 PM MDT on August 01, 2015 (GMT -0600)
KNMCARLS3 | | Change Station
CLOSE
Current Station
Personal Weather Station
Location: Carlsbad, NM
Elevation: 3158 ft
Nearby Weather Stations

Elev 3158 ft 32.43 °N, 104.25 °W | Updated 8 seconds ago

Partly Cloudy
Partly Cloudy
94.7 °F
Feels Like 94 °F
N
0.0
Wind Variable Wind from North
Gusts 5.0 mph

Today
High -- | Low -- °F
--% Chance of Precip.
Yesterday
High -- | Low -- °F
Precip. -- in
6:11 AM 7:54 PM
Waning Gibbous, 96% visible
Pressure 29.78 in
Visibility 6.0 miles
Clouds Overcast 10000 ft
Heat Index 94 °F
Dew Point 59 °F
Humidity 31%
Rainfall 0.00 in
Snow Depth Not available.
UV 0 out of 12
Pollen 4.60 out of 12
Air Quality Not available.
Flu Activity Not available.
METAR KCNM 020053Z AUTO 22021G25KT 6SM -RA OVC100 32/16 A2996 RMK AO2 LTG DSNT NE RAB48 SLP084 P0001 T03170156

More Conditions Fewer Conditions

Pressure 29.78 in
Visibility 6.0 miles
Clouds Overcast 10000 ft
Heat Index 94 °F
Dew Point 59 °F
Humidity 31%
Rainfall 0.00 in
Snow Depth Not available.
UV 0 out of 12
Pollen 4.60 out of 12
Air Quality Not available.
Flu Activity Not available.
METAR KCNM 020053Z AUTO 22021G25KT 6SM -RA OVC100 32/16 A2996 RMK AO2 LTG DSNT NE RAB48 SLP084 P0001 T03170156

More Conditions Fewer Conditions

10-Day Weather Forecast

×

Almanac

Astronomy

Aug. 01, 2015 Rise Set
Actual Time
Civil Twilight
Nautical Twilight
Astronomical Twilight
Moon
Length of Visible Light
Length of Day
Tomorrow will be .
, % of the Moon is Illuminated

Today's Extremes

State Highs State Lows

Community

WunderPhotos

Upload Photos

1,843,102 photos uploaded!

WunderBlogs® & News

Nearby

Air Quality

  Air Quality AQ Index Pollutant
Not available.

Snow Depth

Station Depth Elevation

Earthquake Activity

City Distance Mag. Time & Date
Minimum magnitude displayed is 2.5.

Coastal Water Temperatures

Place Temperature

Stations

Nearby Weather Stations

Station Location Temp. Windchill Dew Point Humidity Wind Precip. Elev Updated Type